LFAQ

Albert-Bray Airport

Airport
ICAO code
LFAQ
Summary
ICAO Region
EUR
ICAO Territory
Location

, Picardie

Serving
Albert
Elevation
364 ft
Coordinates
49° 58' 18" N , 2° 41' 52" E
Metar
LFAQ 240230Z AUTO 36004KT CAVOK 14/11 Q1021

Runways

Designator Length Width Surface Rops
9/27 1170 25 ASP No/No

Airport map

Aerial View

SKYbrary Partners:

Safety knowledge contributed by: